sensor_id;sensor_type;location;lat;lon;timestamp;P1;durP1;ratioP1;P2;durP2;ratioP2
70253;SDS011;57649;42.968;1.608;2022-08-25T00:01:23;2.20;;;1.30;;
70253;SDS011;57649;42.968;1.608;2022-08-25T00:03:53;2.55;;;1.20;;
70253;SDS011;57649;42.968;1.608;2022-08-25T00:06:19;6.93;;;1.33;;
70253;SDS011;57649;42.968;1.608;2022-08-25T00:08:44;3.95;;;1.20;;
70253;SDS011;57649;42.968;1.608;2022-08-25T00:11:11;2.08;;;0.98;;
70253;SDS011;57649;42.968;1.608;2022-08-25T00:13:39;1.25;;;0.98;;
70253;SDS011;57649;42.968;1.608;2022-08-25T00:16:07;2.70;;;1.02;;
70253;SDS011;57649;42.968;1.608;2022-08-25T00:18:38;2.90;;;1.27;;
70253;SDS011;57649;42.968;1.608;2022-08-25T00:21:05;3.35;;;1.65;;
70253;SDS011;57649;42.968;1.608;2022-08-25T00:23:31;1.45;;;1.00;;
70253;SDS011;57649;42.968;1.608;2022-08-25T00:25:56;2.75;;;1.10;;
70253;SDS011;57649;42.968;1.608;2022-08-25T00:28:22;2.47;;;1.10;;
70253;SDS011;57649;42.968;1.608;2022-08-25T00:30:48;1.60;;;0.98;;
70253;SDS011;57649;42.968;1.608;2022-08-25T00:33:14;2.55;;;1.05;;
70253;SDS011;57649;42.968;1.608;2022-08-25T00:35:40;3.25;;;1.23;;
70253;SDS011;57649;42.968;1.608;2022-08-25T00:38:06;2.47;;;1.13;;
70253;SDS011;57649;42.968;1.608;2022-08-25T00:40:33;3.63;;;1.02;;
70253;SDS011;57649;42.968;1.608;2022-08-25T00:43:00;2.78;;;1.08;;
70253;SDS011;57649;42.968;1.608;2022-08-25T00:45:26;1.77;;;0.90;;
70253;SDS011;57649;42.968;1.608;2022-08-25T00:47:52;2.58;;;1.02;;
70253;SDS011;57649;42.968;1.608;2022-08-25T00:50:17;1.17;;;0.85;;
70253;SDS011;57649;42.968;1.608;2022-08-25T00:52:45;3.13;;;0.95;;
70253;SDS011;57649;42.968;1.608;2022-08-25T00:55:17;1.85;;;1.02;;
70253;SDS011;57649;42.968;1.608;2022-08-25T00:57:49;1.83;;;0.95;;
70253;SDS011;57649;42.968;1.608;2022-08-25T01:00:21;2.50;;;1.23;;
70253;SDS011;57649;42.968;1.608;2022-08-25T01:02:50;2.47;;;1.13;;
70253;SDS011;57649;42.968;1.608;2022-08-25T01:05:16;4.30;;;1.15;;
70253;SDS011;57649;42.968;1.608;2022-08-25T01:07:43;2.40;;;1.10;;
70253;SDS011;57649;42.968;1.608;2022-08-25T01:10:10;2.08;;;1.40;;
70253;SDS011;57649;42.968;1.608;2022-08-25T01:12:37;4.75;;;1.27;;
70253;SDS011;57649;42.968;1.608;2022-08-25T01:15:04;2.28;;;1.20;;
70253;SDS011;57649;42.968;1.608;2022-08-25T01:17:32;1.08;;;0.90;;
70253;SDS011;57649;42.968;1.608;2022-08-25T01:20:12;2.25;;;1.00;;
70253;SDS011;57649;42.968;1.608;2022-08-25T01:22:39;4.55;;;1.10;;
70253;SDS011;57649;42.968;1.608;2022-08-25T01:25:07;2.85;;;1.00;;
70253;SDS011;57649;42.968;1.608;2022-08-25T01:28:03;4.80;;;1.15;;
70253;SDS011;57649;42.968;1.608;2022-08-25T01:30:29;1.60;;;1.10;;
70253;SDS011;57649;42.968;1.608;2022-08-25T01:32:55;2.47;;;1.05;;
70253;SDS011;57649;42.968;1.608;2022-08-25T01:35:20;3.13;;;1.20;;
70253;SDS011;57649;42.968;1.608;2022-08-25T01:37:46;3.33;;;1.10;;
70253;SDS011;57649;42.968;1.608;2022-08-25T01:40:12;2.55;;;1.00;;
70253;SDS011;57649;42.968;1.608;2022-08-25T01:45:22;3.65;;;1.00;;
70253;SDS011;57649;42.968;1.608;2022-08-25T01:47:48;1.48;;;1.10;;
70253;SDS011;57649;42.968;1.608;2022-08-25T01:50:13;3.38;;;1.00;;
70253;SDS011;57649;42.968;1.608;2022-08-25T01:52:49;2.95;;;1.10;;
70253;SDS011;57649;42.968;1.608;2022-08-25T01:55:14;1.75;;;1.27;;
70253;SDS011;57649;42.968;1.608;2022-08-25T01:57:40;1.75;;;1.00;;
70253;SDS011;57649;42.968;1.608;2022-08-25T02:00:05;2.47;;;1.17;;
70253;SDS011;57649;42.968;1.608;2022-08-25T02:02:34;1.50;;;1.10;;
70253;SDS011;57649;42.968;1.608;2022-08-25T02:04:59;1.67;;;1.02;;
70253;SDS011;57649;42.968;1.608;2022-08-25T02:07:25;1.35;;;0.82;;
70253;SDS011;57649;42.968;1.608;2022-08-25T02:09:50;2.55;;;0.88;;
70253;SDS011;57649;42.968;1.608;2022-08-25T02:12:16;5.45;;;1.10;;
70253;SDS011;57649;42.968;1.608;2022-08-25T02:14:41;2.38;;;1.20;;
70253;SDS011;57649;42.968;1.608;2022-08-25T02:17:07;1.83;;;1.00;;
70253;SDS011;57649;42.968;1.608;2022-08-25T02:19:33;6.68;;;1.10;;
70253;SDS011;57649;42.968;1.608;2022-08-25T02:21:59;2.60;;;0.98;;
70253;SDS011;57649;42.968;1.608;2022-08-25T02:24:25;2.40;;;0.93;;
70253;SDS011;57649;42.968;1.608;2022-08-25T02:26:51;2.90;;;1.02;;
70253;SDS011;57649;42.968;1.608;2022-08-25T02:29:16;5.90;;;1.15;;
70253;SDS011;57649;42.968;1.608;2022-08-25T02:31:42;1.67;;;1.08;;
70253;SDS011;57649;42.968;1.608;2022-08-25T02:34:08;2.80;;;1.23;;
70253;SDS011;57649;42.968;1.608;2022-08-25T02:36:34;3.00;;;0.90;;
70253;SDS011;57649;42.968;1.608;2022-08-25T02:39:01;1.55;;;0.80;;
70253;SDS011;57649;42.968;1.608;2022-08-25T02:41:28;1.67;;;1.00;;
70253;SDS011;57649;42.968;1.608;2022-08-25T02:43:55;7.60;;;1.10;;
70253;SDS011;57649;42.968;1.608;2022-08-25T02:46:21;5.32;;;0.98;;
70253;SDS011;57649;42.968;1.608;2022-08-25T02:48:48;2.95;;;1.10;;
70253;SDS011;57649;42.968;1.608;2022-08-25T02:51:15;2.30;;;1.20;;
70253;SDS011;57649;42.968;1.608;2022-08-25T02:53:41;3.65;;;1.00;;
70253;SDS011;57649;42.968;1.608;2022-08-25T02:56:10;2.60;;;1.48;;
70253;SDS011;57649;42.968;1.608;2022-08-25T02:58:37;4.22;;;1.42;;
70253;SDS011;57649;42.968;1.608;2022-08-25T03:01:04;2.83;;;1.13;;
70253;SDS011;57649;42.968;1.608;2022-08-25T03:03:31;4.00;;;1.60;;
70253;SDS011;57649;42.968;1.608;2022-08-25T03:05:58;3.15;;;1.50;;
70253;SDS011;57649;42.968;1.608;2022-08-25T03:08:24;3.25;;;1.33;;
70253;SDS011;57649;42.968;1.608;2022-08-25T03:10:50;6.20;;;1.60;;
70253;SDS011;57649;42.968;1.608;2022-08-25T03:13:15;2.13;;;1.52;;
70253;SDS011;57649;42.968;1.608;2022-08-25T03:15:42;5.53;;;1.77;;
70253;SDS011;57649;42.968;1.608;2022-08-25T03:18:08;2.67;;;1.50;;
70253;SDS011;57649;42.968;1.608;2022-08-25T03:20:35;3.15;;;1.67;;
70253;SDS011;57649;42.968;1.608;2022-08-25T03:23:03;5.32;;;2.03;;
70253;SDS011;57649;42.968;1.608;2022-08-25T03:25:29;7.63;;;2.38;;
70253;SDS011;57649;42.968;1.608;2022-08-25T03:28:13;5.68;;;3.30;;
70253;SDS011;57649;42.968;1.608;2022-08-25T03:30:40;7.75;;;3.95;;
70253;SDS011;57649;42.968;1.608;2022-08-25T03:33:06;6.28;;;4.40;;
70253;SDS011;57649;42.968;1.608;2022-08-25T03:35:32;8.60;;;5.32;;
70253;SDS011;57649;42.968;1.608;2022-08-25T03:37:58;8.55;;;5.30;;
70253;SDS011;57649;42.968;1.608;2022-08-25T03:40:24;8.38;;;6.38;;
70253;SDS011;57649;42.968;1.608;2022-08-25T03:42:50;6.50;;;5.40;;
70253;SDS011;57649;42.968;1.608;2022-08-25T03:45:16;8.57;;;5.28;;
70253;SDS011;57649;42.968;1.608;2022-08-25T03:47:44;5.90;;;4.95;;
70253;SDS011;57649;42.968;1.608;2022-08-25T03:50:12;9.13;;;4.97;;
70253;SDS011;57649;42.968;1.608;2022-08-25T03:52:38;5.88;;;4.72;;
70253;SDS011;57649;42.968;1.608;2022-08-25T03:55:04;3.13;;;2.60;;
70253;SDS011;57649;42.968;1.608;2022-08-25T03:57:32;5.10;;;3.90;;
70253;SDS011;57649;42.968;1.608;2022-08-25T03:59:58;6.05;;;1.80;;
70253;SDS011;57649;42.968;1.608;2022-08-25T04:02:23;3.00;;;1.30;;
70253;SDS011;57649;42.968;1.608;2022-08-25T04:04:49;3.85;;;1.33;;
70253;SDS011;57649;42.968;1.608;2022-08-25T04:07:14;2.47;;;1.00;;
70253;SDS011;57649;42.968;1.608;2022-08-25T04:09:40;1.98;;;1.10;;
70253;SDS011;57649;42.968;1.608;2022-08-25T04:12:05;3.53;;;1.20;;
70253;SDS011;57649;42.968;1.608;2022-08-25T04:14:31;1.80;;;1.00;;
70253;SDS011;57649;42.968;1.608;2022-08-25T04:16:56;1.52;;;0.80;;
70253;SDS011;57649;42.968;1.608;2022-08-25T04:19:22;1.20;;;0.98;;
70253;SDS011;57649;42.968;1.608;2022-08-25T04:21:47;3.90;;;1.20;;
70253;SDS011;57649;42.968;1.608;2022-08-25T04:24:13;3.28;;;1.20;;
70253;SDS011;57649;42.968;1.608;2022-08-25T04:26:40;1.77;;;1.25;;
70253;SDS011;57649;42.968;1.608;2022-08-25T04:29:09;1.45;;;1.00;;
70253;SDS011;57649;42.968;1.608;2022-08-25T04:31:37;3.85;;;2.33;;
70253;SDS011;57649;42.968;1.608;2022-08-25T04:34:04;2.80;;;1.10;;
70253;SDS011;57649;42.968;1.608;2022-08-25T04:36:29;1.98;;;0.95;;
70253;SDS011;57649;42.968;1.608;2022-08-25T04:38:56;2.22;;;1.08;;
70253;SDS011;57649;42.968;1.608;2022-08-25T04:41:22;3.83;;;1.00;;
70253;SDS011;57649;42.968;1.608;2022-08-25T04:43:49;1.80;;;0.90;;
70253;SDS011;57649;42.968;1.608;2022-08-25T04:46:23;1.80;;;0.90;;
70253;SDS011;57649;42.968;1.608;2022-08-25T04:48:51;3.10;;;1.10;;
70253;SDS011;57649;42.968;1.608;2022-08-25T04:51:19;1.63;;;1.13;;
70253;SDS011;57649;42.968;1.608;2022-08-25T04:53:47;4.32;;;1.30;;
70253;SDS011;57649;42.968;1.608;2022-08-25T04:56:14;2.10;;;1.00;;
70253;SDS011;57649;42.968;1.608;2022-08-25T04:58:48;2.17;;;0.98;;
70253;SDS011;57649;42.968;1.608;2022-08-25T05:01:16;3.67;;;1.10;;
70253;SDS011;57649;42.968;1.608;2022-08-25T05:03:44;2.30;;;1.00;;
70253;SDS011;57649;42.968;1.608;2022-08-25T05:06:11;2.05;;;1.15;;
70253;SDS011;57649;42.968;1.608;2022-08-25T05:08:37;1.45;;;0.95;;
70253;SDS011;57649;42.968;1.608;2022-08-25T05:11:10;2.17;;;0.90;;
70253;SDS011;57649;42.968;1.608;2022-08-25T05:13:38;3.58;;;1.27;;
70253;SDS011;57649;42.968;1.608;2022-08-25T05:16:04;4.40;;;1.10;;
70253;SDS011;57649;42.968;1.608;2022-08-25T05:18:31;2.03;;;1.10;;
70253;SDS011;57649;42.968;1.608;2022-08-25T05:21:00;3.83;;;1.15;;
70253;SDS011;57649;42.968;1.608;2022-08-25T05:23:28;3.90;;;1.05;;
70253;SDS011;57649;42.968;1.608;2022-08-25T05:25:54;3.10;;;1.15;;
70253;SDS011;57649;42.968;1.608;2022-08-25T05:28:19;3.33;;;1.58;;
70253;SDS011;57649;42.968;1.608;2022-08-25T05:30:45;4.03;;;1.92;;
70253;SDS011;57649;42.968;1.608;2022-08-25T05:33:13;4.82;;;1.42;;
70253;SDS011;57649;42.968;1.608;2022-08-25T05:35:40;2.00;;;1.10;;
70253;SDS011;57649;42.968;1.608;2022-08-25T05:38:05;4.22;;;1.27;;
70253;SDS011;57649;42.968;1.608;2022-08-25T05:40:31;2.03;;;1.00;;
70253;SDS011;57649;42.968;1.608;2022-08-25T05:42:56;2.88;;;1.10;;
70253;SDS011;57649;42.968;1.608;2022-08-25T05:45:22;5.05;;;1.10;;
70253;SDS011;57649;42.968;1.608;2022-08-25T05:47:48;6.45;;;1.50;;
70253;SDS011;57649;42.968;1.608;2022-08-25T05:50:14;7.25;;;1.92;;
70253;SDS011;57649;42.968;1.608;2022-08-25T05:52:40;4.63;;;1.27;;
70253;SDS011;57649;42.968;1.608;2022-08-25T05:55:06;2.60;;;1.33;;
70253;SDS011;57649;42.968;1.608;2022-08-25T05:57:33;3.20;;;1.88;;
70253;SDS011;57649;42.968;1.608;2022-08-25T05:59:58;6.35;;;1.63;;
70253;SDS011;57649;42.968;1.608;2022-08-25T06:02:24;6.05;;;1.70;;
70253;SDS011;57649;42.968;1.608;2022-08-25T06:05:05;3.53;;;1.90;;
70253;SDS011;57649;42.968;1.608;2022-08-25T06:07:32;4.55;;;2.00;;
70253;SDS011;57649;42.968;1.608;2022-08-25T06:09:57;3.92;;;1.92;;
70253;SDS011;57649;42.968;1.608;2022-08-25T06:12:23;5.13;;;1.85;;
70253;SDS011;57649;42.968;1.608;2022-08-25T06:14:49;4.57;;;1.35;;
70253;SDS011;57649;42.968;1.608;2022-08-25T06:17:14;5.90;;;2.42;;
70253;SDS011;57649;42.968;1.608;2022-08-25T06:19:41;2.67;;;1.33;;
70253;SDS011;57649;42.968;1.608;2022-08-25T06:22:06;4.97;;;1.60;;
70253;SDS011;57649;42.968;1.608;2022-08-25T06:24:32;5.63;;;1.27;;
70253;SDS011;57649;42.968;1.608;2022-08-25T06:26:58;4.13;;;1.30;;
70253;SDS011;57649;42.968;1.608;2022-08-25T06:29:23;2.58;;;1.08;;
70253;SDS011;57649;42.968;1.608;2022-08-25T06:31:49;5.07;;;1.40;;
70253;SDS011;57649;42.968;1.608;2022-08-25T06:34:15;5.25;;;1.80;;
70253;SDS011;57649;42.968;1.608;2022-08-25T06:36:40;4.65;;;1.55;;
70253;SDS011;57649;42.968;1.608;2022-08-25T06:39:06;4.75;;;1.63;;
70253;SDS011;57649;42.968;1.608;2022-08-25T06:41:32;4.72;;;1.73;;
70253;SDS011;57649;42.968;1.608;2022-08-25T06:43:58;4.53;;;1.50;;
70253;SDS011;57649;42.968;1.608;2022-08-25T06:46:24;4.22;;;1.30;;
70253;SDS011;57649;42.968;1.608;2022-08-25T06:48:52;5.95;;;1.60;;
70253;SDS011;57649;42.968;1.608;2022-08-25T06:51:18;2.67;;;1.40;;
70253;SDS011;57649;42.968;1.608;2022-08-25T06:53:45;2.97;;;1.15;;
70253;SDS011;57649;42.968;1.608;2022-08-25T06:56:13;2.15;;;1.00;;
70253;SDS011;57649;42.968;1.608;2022-08-25T06:58:39;3.45;;;1.38;;
70253;SDS011;57649;42.968;1.608;2022-08-25T07:01:08;2.67;;;1.30;;
70253;SDS011;57649;42.968;1.608;2022-08-25T07:03:36;2.35;;;1.60;;
70253;SDS011;57649;42.968;1.608;2022-08-25T07:06:01;3.05;;;1.13;;
70253;SDS011;57649;42.968;1.608;2022-08-25T07:08:27;2.08;;;1.02;;
70253;SDS011;57649;42.968;1.608;2022-08-25T07:10:52;2.78;;;1.38;;
70253;SDS011;57649;42.968;1.608;2022-08-25T07:13:18;2.33;;;1.23;;
70253;SDS011;57649;42.968;1.608;2022-08-25T07:15:43;3.90;;;2.10;;
70253;SDS011;57649;42.968;1.608;2022-08-25T07:18:09;3.90;;;1.30;;
70253;SDS011;57649;42.968;1.608;2022-08-25T07:20:39;2.80;;;1.10;;
70253;SDS011;57649;42.968;1.608;2022-08-25T07:23:05;19.10;;;10.23;;
70253;SDS011;57649;42.968;1.608;2022-08-25T07:25:31;3.30;;;1.25;;
70253;SDS011;57649;42.968;1.608;2022-08-25T07:27:58;1.85;;;1.08;;
70253;SDS011;57649;42.968;1.608;2022-08-25T07:30:24;5.75;;;1.13;;
70253;SDS011;57649;42.968;1.608;2022-08-25T07:32:50;1.92;;;1.00;;
70253;SDS011;57649;42.968;1.608;2022-08-25T07:35:16;0.90;;;0.60;;
70253;SDS011;57649;42.968;1.608;2022-08-25T07:37:47;3.70;;;1.42;;
70253;SDS011;57649;42.968;1.608;2022-08-25T07:40:25;1.35;;;0.70;;
70253;SDS011;57649;42.968;1.608;2022-08-25T07:42:56;2.05;;;0.88;;
70253;SDS011;57649;42.968;1.608;2022-08-25T07:45:24;1.45;;;0.85;;
70253;SDS011;57649;42.968;1.608;2022-08-25T07:48:02;2.25;;;0.93;;
70253;SDS011;57649;42.968;1.608;2022-08-25T07:50:33;4.47;;;1.10;;
70253;SDS011;57649;42.968;1.608;2022-08-25T07:53:03;4.85;;;1.48;;
70253;SDS011;57649;42.968;1.608;2022-08-25T07:55:29;4.28;;;1.30;;
70253;SDS011;57649;42.968;1.608;2022-08-25T07:57:55;3.28;;;1.20;;
70253;SDS011;57649;42.968;1.608;2022-08-25T08:00:23;3.58;;;1.25;;
70253;SDS011;57649;42.968;1.608;2022-08-25T08:02:52;3.25;;;1.35;;
70253;SDS011;57649;42.968;1.608;2022-08-25T08:05:17;5.35;;;1.70;;
70253;SDS011;57649;42.968;1.608;2022-08-25T08:07:43;3.17;;;1.65;;
70253;SDS011;57649;42.968;1.608;2022-08-25T08:10:10;2.78;;;1.52;;
70253;SDS011;57649;42.968;1.608;2022-08-25T08:12:38;4.57;;;2.30;;
70253;SDS011;57649;42.968;1.608;2022-08-25T08:15:04;6.93;;;2.78;;
70253;SDS011;57649;42.968;1.608;2022-08-25T08:17:29;4.35;;;2.50;;
70253;SDS011;57649;42.968;1.608;2022-08-25T08:19:56;6.93;;;3.05;;
70253;SDS011;57649;42.968;1.608;2022-08-25T08:22:22;5.50;;;2.67;;
70253;SDS011;57649;42.968;1.608;2022-08-25T08:24:47;3.20;;;1.70;;
70253;SDS011;57649;42.968;1.608;2022-08-25T08:27:13;4.68;;;1.80;;
70253;SDS011;57649;42.968;1.608;2022-08-25T08:29:39;3.15;;;1.20;;
70253;SDS011;57649;42.968;1.608;2022-08-25T08:32:06;3.35;;;1.00;;
70253;SDS011;57649;42.968;1.608;2022-08-25T08:34:34;2.47;;;1.10;;
70253;SDS011;57649;42.968;1.608;2022-08-25T08:36:59;1.83;;;0.90;;
70253;SDS011;57649;42.968;1.608;2022-08-25T08:39:26;2.65;;;1.00;;
70253;SDS011;57649;42.968;1.608;2022-08-25T08:52:21;3.00;;;1.33;;
70253;SDS011;57649;42.968;1.608;2022-08-25T08:54:57;3.80;;;1.00;;
70253;SDS011;57649;42.968;1.608;2022-08-25T08:57:27;2.40;;;0.90;;
70253;SDS011;57649;42.968;1.608;2022-08-25T08:59:56;1.70;;;0.70;;
70253;SDS011;57649;42.968;1.608;2022-08-25T09:02:30;1.48;;;0.75;;
70253;SDS011;57649;42.968;1.608;2022-08-25T09:05:03;4.50;;;1.48;;
70253;SDS011;57649;42.968;1.608;2022-08-25T09:07:39;7.00;;;2.70;;
70253;SDS011;57649;42.968;1.608;2022-08-25T09:10:09;2.08;;;1.05;;
70253;SDS011;57649;42.968;1.608;2022-08-25T09:15:21;2.03;;;1.08;;
70253;SDS011;57649;42.968;1.608;2022-08-25T09:26:59;4.38;;;1.02;;
70253;SDS011;57649;42.968;1.608;2022-08-25T09:32:13;2.25;;;0.90;;
70253;SDS011;57649;42.968;1.608;2022-08-25T09:34:41;59.25;;;6.35;;
70253;SDS011;57649;42.968;1.608;2022-08-25T09:37:08;82.70;;;8.57;;
70253;SDS011;57649;42.968;1.608;2022-08-25T09:39:34;69.95;;;7.05;;
70253;SDS011;57649;42.968;1.608;2022-08-25T09:42:00;17.23;;;1.60;;
70253;SDS011;57649;42.968;1.608;2022-08-25T09:44:26;1.95;;;1.23;;
70253;SDS011;57649;42.968;1.608;2022-08-25T09:47:04;4.40;;;1.10;;
70253;SDS011;57649;42.968;1.608;2022-08-25T09:49:43;12.35;;;1.40;;
70253;SDS011;57649;42.968;1.608;2022-08-25T10:00:11;3.03;;;1.10;;
70253;SDS011;57649;42.968;1.608;2022-08-25T10:02:40;2.30;;;1.35;;
70253;SDS011;57649;42.968;1.608;2022-08-25T10:05:18;1.83;;;1.10;;
70253;SDS011;57649;42.968;1.608;2022-08-25T10:07:49;4.63;;;1.20;;
70253;SDS011;57649;42.968;1.608;2022-08-25T10:12:56;3.35;;;1.50;;
70253;SDS011;57649;42.968;1.608;2022-08-25T10:15:32;6.45;;;1.30;;
70253;SDS011;57649;42.968;1.608;2022-08-25T10:18:45;3.05;;;1.33;;
70253;SDS011;57649;42.968;1.608;2022-08-25T10:20:59;3.45;;;1.00;;
70253;SDS011;57649;42.968;1.608;2022-08-25T10:24:10;6.40;;;2.60;;
70253;SDS011;57649;42.968;1.608;2022-08-25T10:26:36;3.72;;;0.70;;
70253;SDS011;57649;42.968;1.608;2022-08-25T10:31:53;0.98;;;0.68;;
70253;SDS011;57649;42.968;1.608;2022-08-25T10:36:59;2.47;;;1.60;;
70253;SDS011;57649;42.968;1.608;2022-08-25T10:39:32;3.83;;;1.90;;
70253;SDS011;57649;42.968;1.608;2022-08-25T11:09:20;4.63;;;2.55;;
70253;SDS011;57649;42.968;1.608;2022-08-25T11:14:28;5.10;;;3.40;;
70253;SDS011;57649;42.968;1.608;2022-08-25T11:19:35;6.00;;;3.38;;
70253;SDS011;57649;42.968;1.608;2022-08-25T11:25:19;5.95;;;3.30;;
70253;SDS011;57649;42.968;1.608;2022-08-25T11:27:49;7.18;;;3.67;;
70253;SDS011;57649;42.968;1.608;2022-08-25T11:30:35;12.40;;;4.43;;
70253;SDS011;57649;42.968;1.608;2022-08-25T11:33:02;6.03;;;3.90;;
70253;SDS011;57649;42.968;1.608;2022-08-25T11:35:39;8.98;;;4.18;;
70253;SDS011;57649;42.968;1.608;2022-08-25T11:41:08;4.63;;;3.53;;
70253;SDS011;57649;42.968;1.608;2022-08-25T11:51:48;5.85;;;3.75;;
70253;SDS011;57649;42.968;1.608;2022-08-25T11:56:50;8.05;;;3.70;;
70253;SDS011;57649;42.968;1.608;2022-08-25T12:03:07;9.82;;;4.35;;
70253;SDS011;57649;42.968;1.608;2022-08-25T12:10:13;5.93;;;3.90;;
70253;SDS011;57649;42.968;1.608;2022-08-25T12:13:00;5.57;;;3.72;;
70253;SDS011;57649;42.968;1.608;2022-08-25T12:18:11;4.88;;;3.60;;
70253;SDS011;57649;42.968;1.608;2022-08-25T12:29:31;6.78;;;4.50;;
70253;SDS011;57649;42.968;1.608;2022-08-25T12:35:14;5.88;;;4.20;;
70253;SDS011;57649;42.968;1.608;2022-08-25T12:37:58;6.63;;;4.03;;
70253;SDS011;57649;42.968;1.608;2022-08-25T12:45:47;9.88;;;4.20;;
70253;SDS011;57649;42.968;1.608;2022-08-25T12:56:09;14.68;;;4.47;;
70253;SDS011;57649;42.968;1.608;2022-08-25T12:59:09;6.85;;;4.20;;
70253;SDS011;57649;42.968;1.608;2022-08-25T13:01:46;8.95;;;4.22;;
70253;SDS011;57649;42.968;1.608;2022-08-25T13:04:43;7.65;;;4.55;;
70253;SDS011;57649;42.968;1.608;2022-08-25T13:13:06;8.30;;;4.20;;
70253;SDS011;57649;42.968;1.608;2022-08-25T13:15:42;6.32;;;4.40;;
70253;SDS011;57649;42.968;1.608;2022-08-25T13:20:38;6.28;;;3.97;;
70253;SDS011;57649;42.968;1.608;2022-08-25T13:23:04;7.18;;;4.10;;
70253;SDS011;57649;42.968;1.608;2022-08-25T13:25:29;8.88;;;4.20;;
70253;SDS011;57649;42.968;1.608;2022-08-25T13:27:58;5.40;;;4.05;;
70253;SDS011;57649;42.968;1.608;2022-08-25T13:30:28;3.92;;;3.53;;
70253;SDS011;57649;42.968;1.608;2022-08-25T13:32:56;7.10;;;3.83;;
70253;SDS011;57649;42.968;1.608;2022-08-25T13:35:23;9.93;;;4.07;;
70253;SDS011;57649;42.968;1.608;2022-08-25T13:38:11;9.48;;;3.97;;
70253;SDS011;57649;42.968;1.608;2022-08-25T13:40:37;6.22;;;3.80;;
70253;SDS011;57649;42.968;1.608;2022-08-25T13:43:03;4.35;;;3.47;;
70253;SDS011;57649;42.968;1.608;2022-08-25T13:45:31;5.55;;;3.47;;
70253;SDS011;57649;42.968;1.608;2022-08-25T13:48:01;6.93;;;3.00;;
70253;SDS011;57649;42.968;1.608;2022-08-25T13:50:35;8.50;;;3.13;;
70253;SDS011;57649;42.968;1.608;2022-08-25T13:53:10;6.00;;;3.42;;
70253;SDS011;57649;42.968;1.608;2022-08-25T13:58:22;6.35;;;3.30;;
70253;SDS011;57649;42.968;1.608;2022-08-25T14:03:38;6.43;;;3.10;;
70253;SDS011;57649;42.968;1.608;2022-08-25T14:06:08;5.97;;;3.20;;
70253;SDS011;57649;42.968;1.608;2022-08-25T14:08:44;5.68;;;3.20;;
70253;SDS011;57649;42.968;1.608;2022-08-25T14:11:25;7.28;;;3.35;;
70253;SDS011;57649;42.968;1.608;2022-08-25T14:14:02;6.72;;;3.42;;
70253;SDS011;57649;42.968;1.608;2022-08-25T14:16:28;6.97;;;3.30;;
70253;SDS011;57649;42.968;1.608;2022-08-25T14:18:58;5.22;;;3.25;;
70253;SDS011;57649;42.968;1.608;2022-08-25T14:21:29;7.20;;;3.47;;
70253;SDS011;57649;42.968;1.608;2022-08-25T14:23:56;7.50;;;3.55;;
70253;SDS011;57649;42.968;1.608;2022-08-25T14:26:22;6.97;;;3.10;;
70253;SDS011;57649;42.968;1.608;2022-08-25T14:28:48;5.65;;;2.90;;
70253;SDS011;57649;42.968;1.608;2022-08-25T14:31:28;5.40;;;3.60;;
70253;SDS011;57649;42.968;1.608;2022-08-25T14:33:58;6.57;;;2.85;;
70253;SDS011;57649;42.968;1.608;2022-08-25T14:36:24;4.78;;;3.33;;
70253;SDS011;57649;42.968;1.608;2022-08-25T14:38:50;6.90;;;2.95;;
70253;SDS011;57649;42.968;1.608;2022-08-25T14:41:16;8.98;;;3.20;;
70253;SDS011;57649;42.968;1.608;2022-08-25T14:43:41;8.45;;;2.70;;
70253;SDS011;57649;42.968;1.608;2022-08-25T14:46:16;6.85;;;3.03;;
70253;SDS011;57649;42.968;1.608;2022-08-25T14:51:13;7.70;;;2.95;;
70253;SDS011;57649;42.968;1.608;2022-08-25T14:53:40;6.03;;;3.22;;
70253;SDS011;57649;42.968;1.608;2022-08-25T14:56:06;3.42;;;2.40;;
70253;SDS011;57649;42.968;1.608;2022-08-25T14:58:32;6.93;;;3.33;;
70253;SDS011;57649;42.968;1.608;2022-08-25T15:00:58;5.88;;;3.00;;
70253;SDS011;57649;42.968;1.608;2022-08-25T15:03:28;7.72;;;2.95;;
70253;SDS011;57649;42.968;1.608;2022-08-25T15:05:55;4.95;;;2.80;;
70253;SDS011;57649;42.968;1.608;2022-08-25T15:08:21;8.43;;;3.15;;
70253;SDS011;57649;42.968;1.608;2022-08-25T15:11:05;5.82;;;2.70;;
70253;SDS011;57649;42.968;1.608;2022-08-25T15:13:31;6.95;;;2.88;;
70253;SDS011;57649;42.968;1.608;2022-08-25T15:15:56;5.45;;;2.30;;
70253;SDS011;57649;42.968;1.608;2022-08-25T15:18:22;7.93;;;2.60;;
70253;SDS011;57649;42.968;1.608;2022-08-25T15:20:48;5.75;;;2.55;;
70253;SDS011;57649;42.968;1.608;2022-08-25T15:23:14;6.22;;;2.70;;
70253;SDS011;57649;42.968;1.608;2022-08-25T15:25:40;5.97;;;2.33;;
70253;SDS011;57649;42.968;1.608;2022-08-25T15:28:06;7.60;;;2.88;;
70253;SDS011;57649;42.968;1.608;2022-08-25T15:30:33;5.32;;;2.70;;
70253;SDS011;57649;42.968;1.608;2022-08-25T15:32:59;9.07;;;2.72;;
70253;SDS011;57649;42.968;1.608;2022-08-25T15:35:24;5.95;;;2.72;;
70253;SDS011;57649;42.968;1.608;2022-08-25T15:37:50;4.78;;;2.50;;
70253;SDS011;57649;42.968;1.608;2022-08-25T15:40:17;5.15;;;2.50;;
70253;SDS011;57649;42.968;1.608;2022-08-25T15:42:43;6.90;;;2.42;;
70253;SDS011;57649;42.968;1.608;2022-08-25T15:45:09;5.18;;;2.83;;
70253;SDS011;57649;42.968;1.608;2022-08-25T15:47:35;9.23;;;2.75;;
70253;SDS011;57649;42.968;1.608;2022-08-25T15:50:05;4.78;;;2.47;;
70253;SDS011;57649;42.968;1.608;2022-08-25T15:52:35;4.07;;;2.20;;
70253;SDS011;57649;42.968;1.608;2022-08-25T15:55:02;4.40;;;2.47;;
70253;SDS011;57649;42.968;1.608;2022-08-25T15:57:27;8.45;;;2.97;;
70253;SDS011;57649;42.968;1.608;2022-08-25T15:59:53;6.57;;;2.30;;
70253;SDS011;57649;42.968;1.608;2022-08-25T16:02:19;5.80;;;3.22;;
70253;SDS011;57649;42.968;1.608;2022-08-25T16:04:45;4.20;;;2.20;;
70253;SDS011;57649;42.968;1.608;2022-08-25T16:07:11;8.13;;;2.67;;
70253;SDS011;57649;42.968;1.608;2022-08-25T16:09:36;6.60;;;3.17;;
70253;SDS011;57649;42.968;1.608;2022-08-25T16:12:02;5.80;;;2.45;;
70253;SDS011;57649;42.968;1.608;2022-08-25T16:14:28;6.45;;;2.88;;
70253;SDS011;57649;42.968;1.608;2022-08-25T16:16:53;7.13;;;2.42;;
70253;SDS011;57649;42.968;1.608;2022-08-25T16:19:19;9.48;;;2.63;;
70253;SDS011;57649;42.968;1.608;2022-08-25T16:21:45;6.13;;;2.40;;
70253;SDS011;57649;42.968;1.608;2022-08-25T16:24:10;6.40;;;2.55;;
70253;SDS011;57649;42.968;1.608;2022-08-25T16:26:36;5.22;;;2.50;;
70253;SDS011;57649;42.968;1.608;2022-08-25T16:29:07;5.65;;;2.30;;
70253;SDS011;57649;42.968;1.608;2022-08-25T16:31:33;7.85;;;4.72;;
70253;SDS011;57649;42.968;1.608;2022-08-25T16:33:58;8.85;;;2.80;;
70253;SDS011;57649;42.968;1.608;2022-08-25T16:36:25;5.95;;;2.45;;
70253;SDS011;57649;42.968;1.608;2022-08-25T16:38:52;5.85;;;2.60;;
70253;SDS011;57649;42.968;1.608;2022-08-25T16:41:23;5.13;;;2.97;;
70253;SDS011;57649;42.968;1.608;2022-08-25T16:43:51;5.50;;;3.13;;
70253;SDS011;57649;42.968;1.608;2022-08-25T16:46:18;5.95;;;2.95;;
70253;SDS011;57649;42.968;1.608;2022-08-25T16:48:45;3.47;;;2.15;;
70253;SDS011;57649;42.968;1.608;2022-08-25T16:51:12;6.88;;;2.45;;
70253;SDS011;57649;42.968;1.608;2022-08-25T16:53:41;4.38;;;2.10;;
70253;SDS011;57649;42.968;1.608;2022-08-25T16:56:26;6.72;;;2.10;;
70253;SDS011;57649;42.968;1.608;2022-08-25T16:58:52;4.95;;;2.20;;
70253;SDS011;57649;42.968;1.608;2022-08-25T17:01:19;4.97;;;2.15;;
70253;SDS011;57649;42.968;1.608;2022-08-25T17:03:46;5.95;;;2.15;;
70253;SDS011;57649;42.968;1.608;2022-08-25T17:06:12;4.90;;;2.28;;
70253;SDS011;57649;42.968;1.608;2022-08-25T17:08:38;6.38;;;2.40;;
70253;SDS011;57649;42.968;1.608;2022-08-25T17:11:11;8.75;;;2.15;;
70253;SDS011;57649;42.968;1.608;2022-08-25T17:13:40;4.82;;;2.53;;
70253;SDS011;57649;42.968;1.608;2022-08-25T17:16:10;5.68;;;3.60;;
70253;SDS011;57649;42.968;1.608;2022-08-25T17:18:37;5.07;;;3.03;;
70253;SDS011;57649;42.968;1.608;2022-08-25T17:21:05;4.95;;;2.25;;